| Piloto: | GLD166 Carlos M. | Aeronave: | C182 RG II | Distância: | 206NM |
| Origem: | SIBZ | Destino: | SJTW | Duração: | 1.41 |
| Validação: | Validado | Tipo: | Charter | Matrícula: | PT-GLD |
| ZFW: | 2174 | Block Fuel/Init FOB | 100/35 | Combustível em Voo | 100 |
| Passageiros: | 1 | Carga: | 0 | Alternativo: | SIBZ |
| Hora da Decolagem: | 0917 | Velocidade de Cruzeiro: | 150 | Nível de Voo: | A035 |
| Regra Visual: | VFR | ICAO da Aeronave: | C182 | Unidade de Peso: | Kg |
| Data: | 27/04/2026 | Observação: | GOLD ACARS | Rede: | VATSIM |
| Acidentou?: | Não | Comentários do Validador: | Pontuação do Voo | 94.248 |
| ROTA | 0718S03729W 0736S03648W 0757S03558W 0747S03511W 0747S03506W N0150A1500 REA |
| REMARKS | OPR/GOLD VIRTUAL AIRLINES PER/A RMK/FROM SIBZ RMK/PIC GLD166 /REA CHARLIE RMK/VATCAREER |
Para entender como cada item é pontuado, consulte as regras de avaliação.
Nenhuma penalidade registrada para este voo.
| Vento durante o pouso: | 171º/15 kt | Proa durante o pouso: | 159 |
| V/S do Pouso: | -129 ft/min | IAS do Pouso: | 70 kt |
| Força G no pouso: | 1.32 G | Bank no pouso: | -0.65 |
| Pitch no Pouso | 0.62 | Flaps no Pouso | 66 |
| Nav Lights | ON | Landing Lights | ON |
| Beacon Lights | ON | Strobe Lights | ON |
| DATA | EVENTO | IAS | ALTITUDE |
|---|---|---|---|
| 2026-04-27 09:17:31 | GOLD ACARS VERSION 3.3.6.9 | 0 | 0 |
| 2026-04-27 09:17:31 | BOARDING | 0 | 910 |
| 2026-04-27 09:17:31 | LITTLENAVMAP ON | 0 | 910 |
| 2026-04-27 09:17:49 | NAV LIGHTS ON | 0 | 910 |
| 2026-04-27 09:17:50 | BCN LIGHTS ON | 0 | 910 |
| 2026-04-27 09:17:55 | STARTING ENGINE 1 | 0 | 910 |
| 2026-04-27 09:18:40 | TAXI LIGHTS ON | 0 | 910 |
| 2026-04-27 09:19:11 | TAXI TO THE RWY | 6 | 909 |
| 2026-04-27 09:19:24 | LND LIGHTS ON | 2 | 911 |
| 2026-04-27 09:19:26 | TAXI LIGHTS OFF | 2 | 911 |
| 2026-04-27 09:19:31 | STB LIGHTS ON | 3 | 911 |
| 2026-04-27 09:19:38 | FLAP 33% | 2 | 911 |
| 2026-04-27 09:21:44 | CLIMBING | 92 | 945 |
| 2026-04-27 09:21:48 | AP ENGAGED | 92 | 1000 |
| 2026-04-27 09:21:56 | GEAR UP | 94 | 1139 |
| 2026-04-27 09:22:05 | FLAP 0% | 99 | 1270 |
| 2026-04-27 09:22:38 | CRUISE | 125 | 1780 |
| 2026-04-27 09:22:40 | CLIMBING | 127 | 1790 |
| 2026-04-27 09:23:03 | CRUISE | 137 | 1988 |
| 2026-04-27 09:23:05 | CLIMBING | 137 | 2002 |
| 2026-04-27 09:23:13 | CRUISE | 139 | 2074 |
| 2026-04-27 09:23:14 | CLIMBING | 138 | 2081 |
| 2026-04-27 09:23:23 | CRUISE | 142 | 2171 |
| 2026-04-27 09:23:26 | CLIMBING | 142 | 2188 |
| 2026-04-27 09:23:53 | CRUISE | 145 | 2473 |
| 2026-04-27 09:23:56 | CLIMBING | 146 | 2481 |
| 2026-04-27 09:24:12 | CRUISE | 151 | 2624 |
| 2026-04-27 09:24:15 | CLIMBING | 152 | 2636 |
| 2026-04-27 09:24:27 | CRUISE | 153 | 2746 |
| 2026-04-27 09:24:30 | CLIMBING | 150 | 2755 |
| 2026-04-27 09:24:33 | CRUISE | 151 | 2789 |
| 2026-04-27 09:24:36 | CLIMBING | 150 | 2798 |
| 2026-04-27 09:25:07 | CRUISE | 143 | 3073 |
| 2026-04-27 09:25:09 | CLIMBING | 142 | 3080 |
| 2026-04-27 09:25:17 | CRUISE | 147 | 3164 |
| 2026-04-27 09:25:19 | CLIMBING | 150 | 3173 |
| 2026-04-27 09:25:20 | CRUISE | 148 | 3180 |
| 2026-04-27 09:25:22 | CLIMBING | 148 | 3187 |
| 2026-04-27 09:25:40 | CRUISE | 154 | 3349 |
| 2026-04-27 09:25:43 | CLIMBING | 154 | 3358 |
| 2026-04-27 09:25:46 | CRUISE | 153 | 3392 |
| 2026-04-27 09:25:48 | CLIMBING | 156 | 3406 |
| 2026-04-27 09:25:52 | CRUISE | 151 | 3432 |
| 2026-04-27 09:25:54 | CLIMBING | 149 | 3440 |
| 2026-04-27 09:25:58 | CRUISE | 148 | 3487 |
| 2026-04-27 09:26:01 | CLIMBING | 145 | 3489 |
| 2026-04-27 09:26:12 | CRUISE | 149 | 3598 |
| 2026-04-27 09:26:15 | CLIMBING | 149 | 3600 |
| 2026-04-27 09:26:18 | CRUISE | 147 | 3637 |
| 2026-04-27 09:26:20 | CLIMBING | 146 | 3652 |
| 2026-04-27 09:26:44 | CRUISE | 139 | 3840 |
| 2026-04-27 09:26:55 | CLIMBING | 137 | 3914 |
| 2026-04-27 09:28:30 | CRUISE | 138 | 4703 |
| 2026-04-27 09:28:33 | CLIMBING | 139 | 4719 |
| 2026-04-27 09:29:19 | CRUISE | 138 | 5090 |
| 2026-04-27 09:29:21 | CLIMBING | 137 | 5098 |
| 2026-04-27 09:29:30 | CRUISE | 135 | 5164 |
| 2026-04-27 09:29:32 | DESCEND | 138 | 5158 |
| 2026-04-27 09:32:15 | CLIMBING | 140 | 3573 |
| 2026-04-27 09:32:16 | CRUISE | 141 | 3581 |
| 2026-04-27 09:32:22 | CLIMBING | 143 | 3563 |
| 2026-04-27 09:32:24 | CRUISE | 147 | 3583 |
| 2026-04-27 09:34:18 | LANDING | 158 | 3597 |
| 2026-04-27 09:34:27 | CLIMBING | 156 | 3582 |
| 2026-04-27 09:34:28 | CRUISE | 155 | 3586 |
| 2026-04-27 09:34:58 | LANDING | 158 | 3581 |
| 2026-04-27 09:45:28 | CLIMBING | 148 | 3536 |
| 2026-04-27 09:45:30 | CRUISE | 149 | 3545 |
| 2026-04-27 09:45:46 | CLIMBING | 153 | 3540 |
| 2026-04-27 09:45:48 | CRUISE | 154 | 3551 |
| 2026-04-27 09:46:09 | LANDING | 159 | 3548 |
| 2026-04-27 09:46:44 | CLIMBING | 157 | 3545 |
| 2026-04-27 09:46:46 | CRUISE | 156 | 3559 |
| 2026-04-27 09:46:51 | LANDING | 155 | 3547 |
| 2026-04-27 09:49:24 | CLIMBING | 154 | 3534 |
| 2026-04-27 09:49:25 | CRUISE | 153 | 3540 |
| 2026-04-27 09:52:27 | LANDING | 154 | 3521 |
| 2026-04-27 10:06:54 | CLIMBING | 150 | 3492 |
| 2026-04-27 10:06:56 | CRUISE | 152 | 3506 |
| 2026-04-27 10:08:31 | CLIMBING | 147 | 3493 |
| 2026-04-27 10:08:33 | CRUISE | 147 | 3501 |
| 2026-04-27 10:09:05 | CLIMBING | 148 | 3491 |
| 2026-04-27 10:09:07 | CRUISE | 155 | 3515 |
| 2026-04-27 10:09:46 | CLIMBING | 152 | 3484 |
| 2026-04-27 10:09:49 | CRUISE | 152 | 3507 |
| 2026-04-27 10:30:38 | DESCEND | 150 | 3485 |
| 2026-04-27 10:39:23 | GEAR DOWN | 169 | 1071 |
| 2026-04-27 10:39:30 | AP DISENGAGED | 168 | 1029 |
| 2026-04-27 10:40:17 | FLAP 33% | 107 | 122 |
| 2026-04-27 10:40:24 | FLAP 66% | 92 | 67 |
| 2026-04-27 10:40:34 | LANDED AIRPORT [SJTW] | 72 | 43 |
| 2026-04-27 10:40:35 | LANDED - VS: -129 ft/min | 70 | 42 |
| 2026-04-27 10:40:42 | TAXI TO THE GATE | 25 | 41 |
| 2026-04-27 10:40:50 | AT THE GATE | 0 | 43 |
| 2026-04-27 10:40:56 | LND LIGHTS OFF | 0 | 43 |
| 2026-04-27 10:41:03 | TAXI LIGHTS ON | 0 | 43 |
| 2026-04-27 10:41:09 | STB LIGHTS OFF | 0 | 43 |
| 2026-04-27 10:41:18 | FLAP 0% | 0 | 43 |
| 2026-04-27 10:41:58 | TAXI LIGHTS OFF | 0 | 43 |
| 2026-04-27 10:42:05 | STOPPING ENGINE 1 | 0 | 42 |
| 2026-04-27 10:42:07 | BCN LIGHTS OFF | 0 | 42 |
| 2026-04-27 10:42:11 | LANDED NOT IN THE PLANNED AIRPORT [SIFC] - [lat: -7,84469693678111] - [long: -34,8925485576639] | 0 | 42 |
| 2026-04-27 10:42:11 | FLIGHT FINISHED | 0 | 42 |
| 2026-04-27 09:17:31 | GOLD ACARS VERSION 3.3.6.9 | 0 | 0 |
| 2026-04-27 09:17:31 | BOARDING | 0 | 910 |
| 2026-04-27 09:17:31 | LITTLENAVMAP ON | 0 | 910 |
| 2026-04-27 09:17:49 | NAV LIGHTS ON | 0 | 910 |
| 2026-04-27 09:17:50 | BCN LIGHTS ON | 0 | 910 |
| 2026-04-27 09:17:55 | STARTING ENGINE 1 | 0 | 910 |
| 2026-04-27 09:18:40 | TAXI LIGHTS ON | 0 | 910 |
| 2026-04-27 09:19:11 | TAXI TO THE RWY | 6 | 909 |
| 2026-04-27 09:19:24 | LND LIGHTS ON | 2 | 911 |
| 2026-04-27 09:19:26 | TAXI LIGHTS OFF | 2 | 911 |
| 2026-04-27 09:19:31 | STB LIGHTS ON | 3 | 911 |
| 2026-04-27 09:19:38 | FLAP 33% | 2 | 911 |
| 2026-04-27 09:21:44 | CLIMBING | 92 | 945 |
| 2026-04-27 09:21:48 | AP ENGAGED | 92 | 1000 |
| 2026-04-27 09:21:56 | GEAR UP | 94 | 1139 |
| 2026-04-27 09:22:05 | FLAP 0% | 99 | 1270 |
| 2026-04-27 09:22:38 | CRUISE | 125 | 1780 |
| 2026-04-27 09:22:40 | CLIMBING | 127 | 1790 |
| 2026-04-27 09:23:03 | CRUISE | 137 | 1988 |
| 2026-04-27 09:23:05 | CLIMBING | 137 | 2002 |
| 2026-04-27 09:23:13 | CRUISE | 139 | 2074 |
| 2026-04-27 09:23:14 | CLIMBING | 138 | 2081 |
| 2026-04-27 09:23:23 | CRUISE | 142 | 2171 |
| 2026-04-27 09:23:26 | CLIMBING | 142 | 2188 |
| 2026-04-27 09:23:53 | CRUISE | 145 | 2473 |
| 2026-04-27 09:23:56 | CLIMBING | 146 | 2481 |
| 2026-04-27 09:24:12 | CRUISE | 151 | 2624 |
| 2026-04-27 09:24:15 | CLIMBING | 152 | 2636 |
| 2026-04-27 09:24:27 | CRUISE | 153 | 2746 |
| 2026-04-27 09:24:30 | CLIMBING | 150 | 2755 |
| 2026-04-27 09:24:33 | CRUISE | 151 | 2789 |
| 2026-04-27 09:24:36 | CLIMBING | 150 | 2798 |
| 2026-04-27 09:25:07 | CRUISE | 143 | 3073 |
| 2026-04-27 09:25:09 | CLIMBING | 142 | 3080 |
| 2026-04-27 09:25:17 | CRUISE | 147 | 3164 |
| 2026-04-27 09:25:19 | CLIMBING | 150 | 3173 |
| 2026-04-27 09:25:20 | CRUISE | 148 | 3180 |
| 2026-04-27 09:25:22 | CLIMBING | 148 | 3187 |
| 2026-04-27 09:25:40 | CRUISE | 154 | 3349 |
| 2026-04-27 09:25:43 | CLIMBING | 154 | 3358 |
| 2026-04-27 09:25:46 | CRUISE | 153 | 3392 |
| 2026-04-27 09:25:48 | CLIMBING | 156 | 3406 |
| 2026-04-27 09:25:52 | CRUISE | 151 | 3432 |
| 2026-04-27 09:25:54 | CLIMBING | 149 | 3440 |
| 2026-04-27 09:25:58 | CRUISE | 148 | 3487 |
| 2026-04-27 09:26:01 | CLIMBING | 145 | 3489 |
| 2026-04-27 09:26:12 | CRUISE | 149 | 3598 |
| 2026-04-27 09:26:15 | CLIMBING | 149 | 3600 |
| 2026-04-27 09:26:18 | CRUISE | 147 | 3637 |
| 2026-04-27 09:26:20 | CLIMBING | 146 | 3652 |
| 2026-04-27 09:26:44 | CRUISE | 139 | 3840 |
| 2026-04-27 09:26:55 | CLIMBING | 137 | 3914 |
| 2026-04-27 09:28:30 | CRUISE | 138 | 4703 |
| 2026-04-27 09:28:33 | CLIMBING | 139 | 4719 |
| 2026-04-27 09:29:19 | CRUISE | 138 | 5090 |
| 2026-04-27 09:29:21 | CLIMBING | 137 | 5098 |
| 2026-04-27 09:29:30 | CRUISE | 135 | 5164 |
| 2026-04-27 09:29:32 | DESCEND | 138 | 5158 |
| 2026-04-27 09:32:15 | CLIMBING | 140 | 3573 |
| 2026-04-27 09:32:16 | CRUISE | 141 | 3581 |
| 2026-04-27 09:32:22 | CLIMBING | 143 | 3563 |
| 2026-04-27 09:32:24 | CRUISE | 147 | 3583 |
| 2026-04-27 09:34:18 | LANDING | 158 | 3597 |
| 2026-04-27 09:34:27 | CLIMBING | 156 | 3582 |
| 2026-04-27 09:34:28 | CRUISE | 155 | 3586 |
| 2026-04-27 09:34:58 | LANDING | 158 | 3581 |
| 2026-04-27 09:45:28 | CLIMBING | 148 | 3536 |
| 2026-04-27 09:45:30 | CRUISE | 149 | 3545 |
| 2026-04-27 09:45:46 | CLIMBING | 153 | 3540 |
| 2026-04-27 09:45:48 | CRUISE | 154 | 3551 |
| 2026-04-27 09:46:09 | LANDING | 159 | 3548 |
| 2026-04-27 09:46:44 | CLIMBING | 157 | 3545 |
| 2026-04-27 09:46:46 | CRUISE | 156 | 3559 |
| 2026-04-27 09:46:51 | LANDING | 155 | 3547 |
| 2026-04-27 09:49:24 | CLIMBING | 154 | 3534 |
| 2026-04-27 09:49:25 | CRUISE | 153 | 3540 |
| 2026-04-27 09:52:27 | LANDING | 154 | 3521 |
| 2026-04-27 10:06:54 | CLIMBING | 150 | 3492 |
| 2026-04-27 10:06:56 | CRUISE | 152 | 3506 |
| 2026-04-27 10:08:31 | CLIMBING | 147 | 3493 |
| 2026-04-27 10:08:33 | CRUISE | 147 | 3501 |
| 2026-04-27 10:09:05 | CLIMBING | 148 | 3491 |
| 2026-04-27 10:09:07 | CRUISE | 155 | 3515 |
| 2026-04-27 10:09:46 | CLIMBING | 152 | 3484 |
| 2026-04-27 10:09:49 | CRUISE | 152 | 3507 |
| 2026-04-27 10:30:38 | DESCEND | 150 | 3485 |
| 2026-04-27 10:39:23 | GEAR DOWN | 169 | 1071 |
| 2026-04-27 10:39:30 | AP DISENGAGED | 168 | 1029 |
| 2026-04-27 10:40:17 | FLAP 33% | 107 | 122 |
| 2026-04-27 10:40:24 | FLAP 66% | 92 | 67 |
| 2026-04-27 10:40:34 | LANDED AIRPORT [SJTW] | 72 | 43 |
| 2026-04-27 10:40:35 | LANDED - VS: -129 ft/min | 70 | 42 |
| 2026-04-27 10:40:42 | TAXI TO THE GATE | 25 | 41 |
| 2026-04-27 10:40:50 | AT THE GATE | 0 | 43 |
| 2026-04-27 10:40:56 | LND LIGHTS OFF | 0 | 43 |
| 2026-04-27 10:41:03 | TAXI LIGHTS ON | 0 | 43 |
| 2026-04-27 10:41:09 | STB LIGHTS OFF | 0 | 43 |
| 2026-04-27 10:41:18 | FLAP 0% | 0 | 43 |
| 2026-04-27 10:41:58 | TAXI LIGHTS OFF | 0 | 43 |
| 2026-04-27 10:42:05 | STOPPING ENGINE 1 | 0 | 42 |
| 2026-04-27 10:42:07 | BCN LIGHTS OFF | 0 | 42 |
| 2026-04-27 10:42:11 | LANDED NOT IN THE PLANNED AIRPORT [SIFC] - [lat: -7,84469693678111] - [long: -34,8925485576639] | 0 | 42 |
| 2026-04-27 10:42:11 | FLIGHT FINISHED | 0 | 42 |
| 2026-04-27 09:17:31 | GOLD ACARS VERSION 3.3.6.9 | 0 | 0 |
| 2026-04-27 09:17:31 | BOARDING | 0 | 910 |
| 2026-04-27 09:17:31 | LITTLENAVMAP ON | 0 | 910 |
| 2026-04-27 09:17:49 | NAV LIGHTS ON | 0 | 910 |
| 2026-04-27 09:17:50 | BCN LIGHTS ON | 0 | 910 |
| 2026-04-27 09:17:55 | STARTING ENGINE 1 | 0 | 910 |
| 2026-04-27 09:18:40 | TAXI LIGHTS ON | 0 | 910 |
| 2026-04-27 09:19:11 | TAXI TO THE RWY | 6 | 909 |
| 2026-04-27 09:19:24 | LND LIGHTS ON | 2 | 911 |
| 2026-04-27 09:19:26 | TAXI LIGHTS OFF | 2 | 911 |
| 2026-04-27 09:19:31 | STB LIGHTS ON | 3 | 911 |
| 2026-04-27 09:19:38 | FLAP 33% | 2 | 911 |
| 2026-04-27 09:21:44 | CLIMBING | 92 | 945 |
| 2026-04-27 09:21:48 | AP ENGAGED | 92 | 1000 |
| 2026-04-27 09:21:56 | GEAR UP | 94 | 1139 |
| 2026-04-27 09:22:05 | FLAP 0% | 99 | 1270 |
| 2026-04-27 09:22:38 | CRUISE | 125 | 1780 |
| 2026-04-27 09:22:40 | CLIMBING | 127 | 1790 |
| 2026-04-27 09:23:03 | CRUISE | 137 | 1988 |
| 2026-04-27 09:23:05 | CLIMBING | 137 | 2002 |
| 2026-04-27 09:23:13 | CRUISE | 139 | 2074 |
| 2026-04-27 09:23:14 | CLIMBING | 138 | 2081 |
| 2026-04-27 09:23:23 | CRUISE | 142 | 2171 |
| 2026-04-27 09:23:26 | CLIMBING | 142 | 2188 |
| 2026-04-27 09:23:53 | CRUISE | 145 | 2473 |
| 2026-04-27 09:23:56 | CLIMBING | 146 | 2481 |
| 2026-04-27 09:24:12 | CRUISE | 151 | 2624 |
| 2026-04-27 09:24:15 | CLIMBING | 152 | 2636 |
| 2026-04-27 09:24:27 | CRUISE | 153 | 2746 |
| 2026-04-27 09:24:30 | CLIMBING | 150 | 2755 |
| 2026-04-27 09:24:33 | CRUISE | 151 | 2789 |
| 2026-04-27 09:24:36 | CLIMBING | 150 | 2798 |
| 2026-04-27 09:25:07 | CRUISE | 143 | 3073 |
| 2026-04-27 09:25:09 | CLIMBING | 142 | 3080 |
| 2026-04-27 09:25:17 | CRUISE | 147 | 3164 |
| 2026-04-27 09:25:19 | CLIMBING | 150 | 3173 |
| 2026-04-27 09:25:20 | CRUISE | 148 | 3180 |
| 2026-04-27 09:25:22 | CLIMBING | 148 | 3187 |
| 2026-04-27 09:25:40 | CRUISE | 154 | 3349 |
| 2026-04-27 09:25:43 | CLIMBING | 154 | 3358 |
| 2026-04-27 09:25:46 | CRUISE | 153 | 3392 |
| 2026-04-27 09:25:48 | CLIMBING | 156 | 3406 |
| 2026-04-27 09:25:52 | CRUISE | 151 | 3432 |
| 2026-04-27 09:25:54 | CLIMBING | 149 | 3440 |
| 2026-04-27 09:25:58 | CRUISE | 148 | 3487 |
| 2026-04-27 09:26:01 | CLIMBING | 145 | 3489 |
| 2026-04-27 09:26:12 | CRUISE | 149 | 3598 |
| 2026-04-27 09:26:15 | CLIMBING | 149 | 3600 |
| 2026-04-27 09:26:18 | CRUISE | 147 | 3637 |
| 2026-04-27 09:26:20 | CLIMBING | 146 | 3652 |
| 2026-04-27 09:26:44 | CRUISE | 139 | 3840 |
| 2026-04-27 09:26:55 | CLIMBING | 137 | 3914 |
| 2026-04-27 09:28:30 | CRUISE | 138 | 4703 |
| 2026-04-27 09:28:33 | CLIMBING | 139 | 4719 |
| 2026-04-27 09:29:19 | CRUISE | 138 | 5090 |
| 2026-04-27 09:29:21 | CLIMBING | 137 | 5098 |
| 2026-04-27 09:29:30 | CRUISE | 135 | 5164 |
| 2026-04-27 09:29:32 | DESCEND | 138 | 5158 |
| 2026-04-27 09:32:15 | CLIMBING | 140 | 3573 |
| 2026-04-27 09:32:16 | CRUISE | 141 | 3581 |
| 2026-04-27 09:32:22 | CLIMBING | 143 | 3563 |
| 2026-04-27 09:32:24 | CRUISE | 147 | 3583 |
| 2026-04-27 09:34:18 | LANDING | 158 | 3597 |
| 2026-04-27 09:34:27 | CLIMBING | 156 | 3582 |
| 2026-04-27 09:34:28 | CRUISE | 155 | 3586 |
| 2026-04-27 09:34:58 | LANDING | 158 | 3581 |
| 2026-04-27 09:45:28 | CLIMBING | 148 | 3536 |
| 2026-04-27 09:45:30 | CRUISE | 149 | 3545 |
| 2026-04-27 09:45:46 | CLIMBING | 153 | 3540 |
| 2026-04-27 09:45:48 | CRUISE | 154 | 3551 |
| 2026-04-27 09:46:09 | LANDING | 159 | 3548 |
| 2026-04-27 09:46:44 | CLIMBING | 157 | 3545 |
| 2026-04-27 09:46:46 | CRUISE | 156 | 3559 |
| 2026-04-27 09:46:51 | LANDING | 155 | 3547 |
| 2026-04-27 09:49:24 | CLIMBING | 154 | 3534 |
| 2026-04-27 09:49:25 | CRUISE | 153 | 3540 |
| 2026-04-27 09:52:27 | LANDING | 154 | 3521 |
| 2026-04-27 10:06:54 | CLIMBING | 150 | 3492 |
| 2026-04-27 10:06:56 | CRUISE | 152 | 3506 |
| 2026-04-27 10:08:31 | CLIMBING | 147 | 3493 |
| 2026-04-27 10:08:33 | CRUISE | 147 | 3501 |
| 2026-04-27 10:09:05 | CLIMBING | 148 | 3491 |
| 2026-04-27 10:09:07 | CRUISE | 155 | 3515 |
| 2026-04-27 10:09:46 | CLIMBING | 152 | 3484 |
| 2026-04-27 10:09:49 | CRUISE | 152 | 3507 |
| 2026-04-27 10:30:38 | DESCEND | 150 | 3485 |
| 2026-04-27 10:39:23 | GEAR DOWN | 169 | 1071 |
| 2026-04-27 10:39:30 | AP DISENGAGED | 168 | 1029 |
| 2026-04-27 10:40:17 | FLAP 33% | 107 | 122 |
| 2026-04-27 10:40:24 | FLAP 66% | 92 | 67 |
| 2026-04-27 10:40:34 | LANDED AIRPORT [SJTW] | 72 | 43 |
| 2026-04-27 10:40:35 | LANDED - VS: -129 ft/min | 70 | 42 |
| 2026-04-27 10:40:42 | TAXI TO THE GATE | 25 | 41 |
| 2026-04-27 10:40:50 | AT THE GATE | 0 | 43 |
| 2026-04-27 10:40:56 | LND LIGHTS OFF | 0 | 43 |
| 2026-04-27 10:41:03 | TAXI LIGHTS ON | 0 | 43 |
| 2026-04-27 10:41:09 | STB LIGHTS OFF | 0 | 43 |
| 2026-04-27 10:41:18 | FLAP 0% | 0 | 43 |
| 2026-04-27 10:41:58 | TAXI LIGHTS OFF | 0 | 43 |
| 2026-04-27 10:42:05 | STOPPING ENGINE 1 | 0 | 42 |
| 2026-04-27 10:42:07 | BCN LIGHTS OFF | 0 | 42 |
| 2026-04-27 10:42:11 | LANDED NOT IN THE PLANNED AIRPORT [SIFC] - [lat: -7,84469693678111] - [long: -34,8925485576639] | 0 | 42 |
| 2026-04-27 10:42:11 | FLIGHT FINISHED | 0 | 42 |
| 2026-04-27 09:17:31 | GOLD ACARS VERSION 3.3.6.9 | 0 | 0 |
| 2026-04-27 09:17:31 | BOARDING | 0 | 910 |
| 2026-04-27 09:17:31 | LITTLENAVMAP ON | 0 | 910 |
| 2026-04-27 09:17:49 | NAV LIGHTS ON | 0 | 910 |
| 2026-04-27 09:17:50 | BCN LIGHTS ON | 0 | 910 |
| 2026-04-27 09:17:55 | STARTING ENGINE 1 | 0 | 910 |
| 2026-04-27 09:18:40 | TAXI LIGHTS ON | 0 | 910 |
| 2026-04-27 09:19:11 | TAXI TO THE RWY | 6 | 909 |
| 2026-04-27 09:19:24 | LND LIGHTS ON | 2 | 911 |
| 2026-04-27 09:19:26 | TAXI LIGHTS OFF | 2 | 911 |
| 2026-04-27 09:19:31 | STB LIGHTS ON | 3 | 911 |
| 2026-04-27 09:19:38 | FLAP 33% | 2 | 911 |
| 2026-04-27 09:21:44 | CLIMBING | 92 | 945 |
| 2026-04-27 09:21:48 | AP ENGAGED | 92 | 1000 |
| 2026-04-27 09:21:56 | GEAR UP | 94 | 1139 |
| 2026-04-27 09:22:05 | FLAP 0% | 99 | 1270 |
| 2026-04-27 09:22:38 | CRUISE | 125 | 1780 |
| 2026-04-27 09:22:40 | CLIMBING | 127 | 1790 |
| 2026-04-27 09:23:03 | CRUISE | 137 | 1988 |
| 2026-04-27 09:23:05 | CLIMBING | 137 | 2002 |
| 2026-04-27 09:23:13 | CRUISE | 139 | 2074 |
| 2026-04-27 09:23:14 | CLIMBING | 138 | 2081 |
| 2026-04-27 09:23:23 | CRUISE | 142 | 2171 |
| 2026-04-27 09:23:26 | CLIMBING | 142 | 2188 |
| 2026-04-27 09:23:53 | CRUISE | 145 | 2473 |
| 2026-04-27 09:23:56 | CLIMBING | 146 | 2481 |
| 2026-04-27 09:24:12 | CRUISE | 151 | 2624 |
| 2026-04-27 09:24:15 | CLIMBING | 152 | 2636 |
| 2026-04-27 09:24:27 | CRUISE | 153 | 2746 |
| 2026-04-27 09:24:30 | CLIMBING | 150 | 2755 |
| 2026-04-27 09:24:33 | CRUISE | 151 | 2789 |
| 2026-04-27 09:24:36 | CLIMBING | 150 | 2798 |
| 2026-04-27 09:25:07 | CRUISE | 143 | 3073 |
| 2026-04-27 09:25:09 | CLIMBING | 142 | 3080 |
| 2026-04-27 09:25:17 | CRUISE | 147 | 3164 |
| 2026-04-27 09:25:19 | CLIMBING | 150 | 3173 |
| 2026-04-27 09:25:20 | CRUISE | 148 | 3180 |
| 2026-04-27 09:25:22 | CLIMBING | 148 | 3187 |
| 2026-04-27 09:25:40 | CRUISE | 154 | 3349 |
| 2026-04-27 09:25:43 | CLIMBING | 154 | 3358 |
| 2026-04-27 09:25:46 | CRUISE | 153 | 3392 |
| 2026-04-27 09:25:48 | CLIMBING | 156 | 3406 |
| 2026-04-27 09:25:52 | CRUISE | 151 | 3432 |
| 2026-04-27 09:25:54 | CLIMBING | 149 | 3440 |
| 2026-04-27 09:25:58 | CRUISE | 148 | 3487 |
| 2026-04-27 09:26:01 | CLIMBING | 145 | 3489 |
| 2026-04-27 09:26:12 | CRUISE | 149 | 3598 |
| 2026-04-27 09:26:15 | CLIMBING | 149 | 3600 |
| 2026-04-27 09:26:18 | CRUISE | 147 | 3637 |
| 2026-04-27 09:26:20 | CLIMBING | 146 | 3652 |
| 2026-04-27 09:26:44 | CRUISE | 139 | 3840 |
| 2026-04-27 09:26:55 | CLIMBING | 137 | 3914 |
| 2026-04-27 09:28:30 | CRUISE | 138 | 4703 |
| 2026-04-27 09:28:33 | CLIMBING | 139 | 4719 |
| 2026-04-27 09:29:19 | CRUISE | 138 | 5090 |
| 2026-04-27 09:29:21 | CLIMBING | 137 | 5098 |
| 2026-04-27 09:29:30 | CRUISE | 135 | 5164 |
| 2026-04-27 09:29:32 | DESCEND | 138 | 5158 |
| 2026-04-27 09:32:15 | CLIMBING | 140 | 3573 |
| 2026-04-27 09:32:16 | CRUISE | 141 | 3581 |
| 2026-04-27 09:32:22 | CLIMBING | 143 | 3563 |
| 2026-04-27 09:32:24 | CRUISE | 147 | 3583 |
| 2026-04-27 09:34:18 | LANDING | 158 | 3597 |
| 2026-04-27 09:34:27 | CLIMBING | 156 | 3582 |
| 2026-04-27 09:34:28 | CRUISE | 155 | 3586 |
| 2026-04-27 09:34:58 | LANDING | 158 | 3581 |
| 2026-04-27 09:45:28 | CLIMBING | 148 | 3536 |
| 2026-04-27 09:45:30 | CRUISE | 149 | 3545 |
| 2026-04-27 09:45:46 | CLIMBING | 153 | 3540 |
| 2026-04-27 09:45:48 | CRUISE | 154 | 3551 |
| 2026-04-27 09:46:09 | LANDING | 159 | 3548 |
| 2026-04-27 09:46:44 | CLIMBING | 157 | 3545 |
| 2026-04-27 09:46:46 | CRUISE | 156 | 3559 |
| 2026-04-27 09:46:51 | LANDING | 155 | 3547 |
| 2026-04-27 09:49:24 | CLIMBING | 154 | 3534 |
| 2026-04-27 09:49:25 | CRUISE | 153 | 3540 |
| 2026-04-27 09:52:27 | LANDING | 154 | 3521 |
| 2026-04-27 10:06:54 | CLIMBING | 150 | 3492 |
| 2026-04-27 10:06:56 | CRUISE | 152 | 3506 |
| 2026-04-27 10:08:31 | CLIMBING | 147 | 3493 |
| 2026-04-27 10:08:33 | CRUISE | 147 | 3501 |
| 2026-04-27 10:09:05 | CLIMBING | 148 | 3491 |
| 2026-04-27 10:09:07 | CRUISE | 155 | 3515 |
| 2026-04-27 10:09:46 | CLIMBING | 152 | 3484 |
| 2026-04-27 10:09:49 | CRUISE | 152 | 3507 |
| 2026-04-27 10:30:38 | DESCEND | 150 | 3485 |
| 2026-04-27 10:39:23 | GEAR DOWN | 169 | 1071 |
| 2026-04-27 10:39:30 | AP DISENGAGED | 168 | 1029 |
| 2026-04-27 10:40:17 | FLAP 33% | 107 | 122 |
| 2026-04-27 10:40:24 | FLAP 66% | 92 | 67 |
| 2026-04-27 10:40:34 | LANDED AIRPORT [SJTW] | 72 | 43 |
| 2026-04-27 10:40:35 | LANDED - VS: -129 ft/min | 70 | 42 |
| 2026-04-27 10:40:42 | TAXI TO THE GATE | 25 | 41 |
| 2026-04-27 10:40:50 | AT THE GATE | 0 | 43 |
| 2026-04-27 10:40:56 | LND LIGHTS OFF | 0 | 43 |
| 2026-04-27 10:41:03 | TAXI LIGHTS ON | 0 | 43 |
| 2026-04-27 10:41:09 | STB LIGHTS OFF | 0 | 43 |
| 2026-04-27 10:41:18 | FLAP 0% | 0 | 43 |
| 2026-04-27 10:41:58 | TAXI LIGHTS OFF | 0 | 43 |
| 2026-04-27 10:42:05 | STOPPING ENGINE 1 | 0 | 42 |
| 2026-04-27 10:42:07 | BCN LIGHTS OFF | 0 | 42 |
| 2026-04-27 10:42:11 | LANDED NOT IN THE PLANNED AIRPORT [SIFC] - [lat: -7,84469693678111] - [long: -34,8925485576639] | 0 | 42 |
| 2026-04-27 10:42:11 | FLIGHT FINISHED | 0 | 42 |
| 2026-04-27 09:17:31 | GOLD ACARS VERSION 3.3.6.9 | 0 | 0 |
| 2026-04-27 09:17:31 | BOARDING | 0 | 910 |
| 2026-04-27 09:17:31 | LITTLENAVMAP ON | 0 | 910 |
| 2026-04-27 09:17:49 | NAV LIGHTS ON | 0 | 910 |
| 2026-04-27 09:17:50 | BCN LIGHTS ON | 0 | 910 |
| 2026-04-27 09:17:55 | STARTING ENGINE 1 | 0 | 910 |
| 2026-04-27 09:18:40 | TAXI LIGHTS ON | 0 | 910 |
| 2026-04-27 09:19:11 | TAXI TO THE RWY | 6 | 909 |
| 2026-04-27 09:19:24 | LND LIGHTS ON | 2 | 911 |
| 2026-04-27 09:19:26 | TAXI LIGHTS OFF | 2 | 911 |
| 2026-04-27 09:19:31 | STB LIGHTS ON | 3 | 911 |
| 2026-04-27 09:19:38 | FLAP 33% | 2 | 911 |
| 2026-04-27 09:21:44 | CLIMBING | 92 | 945 |
| 2026-04-27 09:21:48 | AP ENGAGED | 92 | 1000 |
| 2026-04-27 09:21:56 | GEAR UP | 94 | 1139 |
| 2026-04-27 09:22:05 | FLAP 0% | 99 | 1270 |
| 2026-04-27 09:22:38 | CRUISE | 125 | 1780 |
| 2026-04-27 09:22:40 | CLIMBING | 127 | 1790 |
| 2026-04-27 09:23:03 | CRUISE | 137 | 1988 |
| 2026-04-27 09:23:05 | CLIMBING | 137 | 2002 |
| 2026-04-27 09:23:13 | CRUISE | 139 | 2074 |
| 2026-04-27 09:23:14 | CLIMBING | 138 | 2081 |
| 2026-04-27 09:23:23 | CRUISE | 142 | 2171 |
| 2026-04-27 09:23:26 | CLIMBING | 142 | 2188 |
| 2026-04-27 09:23:53 | CRUISE | 145 | 2473 |
| 2026-04-27 09:23:56 | CLIMBING | 146 | 2481 |
| 2026-04-27 09:24:12 | CRUISE | 151 | 2624 |
| 2026-04-27 09:24:15 | CLIMBING | 152 | 2636 |
| 2026-04-27 09:24:27 | CRUISE | 153 | 2746 |
| 2026-04-27 09:24:30 | CLIMBING | 150 | 2755 |
| 2026-04-27 09:24:33 | CRUISE | 151 | 2789 |
| 2026-04-27 09:24:36 | CLIMBING | 150 | 2798 |
| 2026-04-27 09:25:07 | CRUISE | 143 | 3073 |
| 2026-04-27 09:25:09 | CLIMBING | 142 | 3080 |
| 2026-04-27 09:25:17 | CRUISE | 147 | 3164 |
| 2026-04-27 09:25:19 | CLIMBING | 150 | 3173 |
| 2026-04-27 09:25:20 | CRUISE | 148 | 3180 |
| 2026-04-27 09:25:22 | CLIMBING | 148 | 3187 |
| 2026-04-27 09:25:40 | CRUISE | 154 | 3349 |
| 2026-04-27 09:25:43 | CLIMBING | 154 | 3358 |
| 2026-04-27 09:25:46 | CRUISE | 153 | 3392 |
| 2026-04-27 09:25:48 | CLIMBING | 156 | 3406 |
| 2026-04-27 09:25:52 | CRUISE | 151 | 3432 |
| 2026-04-27 09:25:54 | CLIMBING | 149 | 3440 |
| 2026-04-27 09:25:58 | CRUISE | 148 | 3487 |
| 2026-04-27 09:26:01 | CLIMBING | 145 | 3489 |
| 2026-04-27 09:26:12 | CRUISE | 149 | 3598 |
| 2026-04-27 09:26:15 | CLIMBING | 149 | 3600 |
| 2026-04-27 09:26:18 | CRUISE | 147 | 3637 |
| 2026-04-27 09:26:20 | CLIMBING | 146 | 3652 |
| 2026-04-27 09:26:44 | CRUISE | 139 | 3840 |
| 2026-04-27 09:26:55 | CLIMBING | 137 | 3914 |
| 2026-04-27 09:28:30 | CRUISE | 138 | 4703 |
| 2026-04-27 09:28:33 | CLIMBING | 139 | 4719 |
| 2026-04-27 09:29:19 | CRUISE | 138 | 5090 |
| 2026-04-27 09:29:21 | CLIMBING | 137 | 5098 |
| 2026-04-27 09:29:30 | CRUISE | 135 | 5164 |
| 2026-04-27 09:29:32 | DESCEND | 138 | 5158 |
| 2026-04-27 09:32:15 | CLIMBING | 140 | 3573 |
| 2026-04-27 09:32:16 | CRUISE | 141 | 3581 |
| 2026-04-27 09:32:22 | CLIMBING | 143 | 3563 |
| 2026-04-27 09:32:24 | CRUISE | 147 | 3583 |
| 2026-04-27 09:34:18 | LANDING | 158 | 3597 |
| 2026-04-27 09:34:27 | CLIMBING | 156 | 3582 |
| 2026-04-27 09:34:28 | CRUISE | 155 | 3586 |
| 2026-04-27 09:34:58 | LANDING | 158 | 3581 |
| 2026-04-27 09:45:28 | CLIMBING | 148 | 3536 |
| 2026-04-27 09:45:30 | CRUISE | 149 | 3545 |
| 2026-04-27 09:45:46 | CLIMBING | 153 | 3540 |
| 2026-04-27 09:45:48 | CRUISE | 154 | 3551 |
| 2026-04-27 09:46:09 | LANDING | 159 | 3548 |
| 2026-04-27 09:46:44 | CLIMBING | 157 | 3545 |
| 2026-04-27 09:46:46 | CRUISE | 156 | 3559 |
| 2026-04-27 09:46:51 | LANDING | 155 | 3547 |
| 2026-04-27 09:49:24 | CLIMBING | 154 | 3534 |
| 2026-04-27 09:49:25 | CRUISE | 153 | 3540 |
| 2026-04-27 09:52:27 | LANDING | 154 | 3521 |
| 2026-04-27 10:06:54 | CLIMBING | 150 | 3492 |
| 2026-04-27 10:06:56 | CRUISE | 152 | 3506 |
| 2026-04-27 10:08:31 | CLIMBING | 147 | 3493 |
| 2026-04-27 10:08:33 | CRUISE | 147 | 3501 |
| 2026-04-27 10:09:05 | CLIMBING | 148 | 3491 |
| 2026-04-27 10:09:07 | CRUISE | 155 | 3515 |
| 2026-04-27 10:09:46 | CLIMBING | 152 | 3484 |
| 2026-04-27 10:09:49 | CRUISE | 152 | 3507 |
| 2026-04-27 10:30:38 | DESCEND | 150 | 3485 |
| 2026-04-27 10:39:23 | GEAR DOWN | 169 | 1071 |
| 2026-04-27 10:39:30 | AP DISENGAGED | 168 | 1029 |
| 2026-04-27 10:40:17 | FLAP 33% | 107 | 122 |
| 2026-04-27 10:40:24 | FLAP 66% | 92 | 67 |
| 2026-04-27 10:40:34 | LANDED AIRPORT [SJTW] | 72 | 43 |
| 2026-04-27 10:40:35 | LANDED - VS: -129 ft/min | 70 | 42 |
| 2026-04-27 10:40:42 | TAXI TO THE GATE | 25 | 41 |
| 2026-04-27 10:40:50 | AT THE GATE | 0 | 43 |
| 2026-04-27 10:40:56 | LND LIGHTS OFF | 0 | 43 |
| 2026-04-27 10:41:03 | TAXI LIGHTS ON | 0 | 43 |
| 2026-04-27 10:41:09 | STB LIGHTS OFF | 0 | 43 |
| 2026-04-27 10:41:18 | FLAP 0% | 0 | 43 |
| 2026-04-27 10:41:58 | TAXI LIGHTS OFF | 0 | 43 |
| 2026-04-27 10:42:05 | STOPPING ENGINE 1 | 0 | 42 |
| 2026-04-27 10:42:07 | BCN LIGHTS OFF | 0 | 42 |
| 2026-04-27 10:42:11 | LANDED NOT IN THE PLANNED AIRPORT [SIFC] - [lat: -7,84469693678111] - [long: -34,8925485576639] | 0 | 42 |
| 2026-04-27 10:42:11 | FLIGHT FINISHED | 0 | 42 |
| 2026-04-27 09:17:31 | GOLD ACARS VERSION 3.3.6.9 | 0 | 0 |
| 2026-04-27 09:17:31 | BOARDING | 0 | 910 |
| 2026-04-27 09:17:31 | LITTLENAVMAP ON | 0 | 910 |
| 2026-04-27 09:17:49 | NAV LIGHTS ON | 0 | 910 |
| 2026-04-27 09:17:50 | BCN LIGHTS ON | 0 | 910 |
| 2026-04-27 09:17:55 | STARTING ENGINE 1 | 0 | 910 |
| 2026-04-27 09:18:40 | TAXI LIGHTS ON | 0 | 910 |
| 2026-04-27 09:19:11 | TAXI TO THE RWY | 6 | 909 |
| 2026-04-27 09:19:24 | LND LIGHTS ON | 2 | 911 |
| 2026-04-27 09:19:26 | TAXI LIGHTS OFF | 2 | 911 |
| 2026-04-27 09:19:31 | STB LIGHTS ON | 3 | 911 |
| 2026-04-27 09:19:38 | FLAP 33% | 2 | 911 |
| 2026-04-27 09:21:44 | CLIMBING | 92 | 945 |
| 2026-04-27 09:21:48 | AP ENGAGED | 92 | 1000 |
| 2026-04-27 09:21:56 | GEAR UP | 94 | 1139 |
| 2026-04-27 09:22:05 | FLAP 0% | 99 | 1270 |
| 2026-04-27 09:22:38 | CRUISE | 125 | 1780 |
| 2026-04-27 09:22:40 | CLIMBING | 127 | 1790 |
| 2026-04-27 09:23:03 | CRUISE | 137 | 1988 |
| 2026-04-27 09:23:05 | CLIMBING | 137 | 2002 |
| 2026-04-27 09:23:13 | CRUISE | 139 | 2074 |
| 2026-04-27 09:23:14 | CLIMBING | 138 | 2081 |
| 2026-04-27 09:23:23 | CRUISE | 142 | 2171 |
| 2026-04-27 09:23:26 | CLIMBING | 142 | 2188 |
| 2026-04-27 09:23:53 | CRUISE | 145 | 2473 |
| 2026-04-27 09:23:56 | CLIMBING | 146 | 2481 |
| 2026-04-27 09:24:12 | CRUISE | 151 | 2624 |
| 2026-04-27 09:24:15 | CLIMBING | 152 | 2636 |
| 2026-04-27 09:24:27 | CRUISE | 153 | 2746 |
| 2026-04-27 09:24:30 | CLIMBING | 150 | 2755 |
| 2026-04-27 09:24:33 | CRUISE | 151 | 2789 |
| 2026-04-27 09:24:36 | CLIMBING | 150 | 2798 |
| 2026-04-27 09:25:07 | CRUISE | 143 | 3073 |
| 2026-04-27 09:25:09 | CLIMBING | 142 | 3080 |
| 2026-04-27 09:25:17 | CRUISE | 147 | 3164 |
| 2026-04-27 09:25:19 | CLIMBING | 150 | 3173 |
| 2026-04-27 09:25:20 | CRUISE | 148 | 3180 |
| 2026-04-27 09:25:22 | CLIMBING | 148 | 3187 |
| 2026-04-27 09:25:40 | CRUISE | 154 | 3349 |
| 2026-04-27 09:25:43 | CLIMBING | 154 | 3358 |
| 2026-04-27 09:25:46 | CRUISE | 153 | 3392 |
| 2026-04-27 09:25:48 | CLIMBING | 156 | 3406 |
| 2026-04-27 09:25:52 | CRUISE | 151 | 3432 |
| 2026-04-27 09:25:54 | CLIMBING | 149 | 3440 |
| 2026-04-27 09:25:58 | CRUISE | 148 | 3487 |
| 2026-04-27 09:26:01 | CLIMBING | 145 | 3489 |
| 2026-04-27 09:26:12 | CRUISE | 149 | 3598 |
| 2026-04-27 09:26:15 | CLIMBING | 149 | 3600 |
| 2026-04-27 09:26:18 | CRUISE | 147 | 3637 |
| 2026-04-27 09:26:20 | CLIMBING | 146 | 3652 |
| 2026-04-27 09:26:44 | CRUISE | 139 | 3840 |
| 2026-04-27 09:26:55 | CLIMBING | 137 | 3914 |
| 2026-04-27 09:28:30 | CRUISE | 138 | 4703 |
| 2026-04-27 09:28:33 | CLIMBING | 139 | 4719 |
| 2026-04-27 09:29:19 | CRUISE | 138 | 5090 |
| 2026-04-27 09:29:21 | CLIMBING | 137 | 5098 |
| 2026-04-27 09:29:30 | CRUISE | 135 | 5164 |
| 2026-04-27 09:29:32 | DESCEND | 138 | 5158 |
| 2026-04-27 09:32:15 | CLIMBING | 140 | 3573 |
| 2026-04-27 09:32:16 | CRUISE | 141 | 3581 |
| 2026-04-27 09:32:22 | CLIMBING | 143 | 3563 |
| 2026-04-27 09:32:24 | CRUISE | 147 | 3583 |
| 2026-04-27 09:34:18 | LANDING | 158 | 3597 |
| 2026-04-27 09:34:27 | CLIMBING | 156 | 3582 |
| 2026-04-27 09:34:28 | CRUISE | 155 | 3586 |
| 2026-04-27 09:34:58 | LANDING | 158 | 3581 |
| 2026-04-27 09:45:28 | CLIMBING | 148 | 3536 |
| 2026-04-27 09:45:30 | CRUISE | 149 | 3545 |
| 2026-04-27 09:45:46 | CLIMBING | 153 | 3540 |
| 2026-04-27 09:45:48 | CRUISE | 154 | 3551 |
| 2026-04-27 09:46:09 | LANDING | 159 | 3548 |
| 2026-04-27 09:46:44 | CLIMBING | 157 | 3545 |
| 2026-04-27 09:46:46 | CRUISE | 156 | 3559 |
| 2026-04-27 09:46:51 | LANDING | 155 | 3547 |
| 2026-04-27 09:49:24 | CLIMBING | 154 | 3534 |
| 2026-04-27 09:49:25 | CRUISE | 153 | 3540 |
| 2026-04-27 09:52:27 | LANDING | 154 | 3521 |
| 2026-04-27 10:06:54 | CLIMBING | 150 | 3492 |
| 2026-04-27 10:06:56 | CRUISE | 152 | 3506 |
| 2026-04-27 10:08:31 | CLIMBING | 147 | 3493 |
| 2026-04-27 10:08:33 | CRUISE | 147 | 3501 |
| 2026-04-27 10:09:05 | CLIMBING | 148 | 3491 |
| 2026-04-27 10:09:07 | CRUISE | 155 | 3515 |
| 2026-04-27 10:09:46 | CLIMBING | 152 | 3484 |
| 2026-04-27 10:09:49 | CRUISE | 152 | 3507 |
| 2026-04-27 10:30:38 | DESCEND | 150 | 3485 |
| 2026-04-27 10:39:23 | GEAR DOWN | 169 | 1071 |
| 2026-04-27 10:39:30 | AP DISENGAGED | 168 | 1029 |
| 2026-04-27 10:40:17 | FLAP 33% | 107 | 122 |
| 2026-04-27 10:40:24 | FLAP 66% | 92 | 67 |
| 2026-04-27 10:40:34 | LANDED AIRPORT [SJTW] | 72 | 43 |
| 2026-04-27 10:40:35 | LANDED - VS: -129 ft/min | 70 | 42 |
| 2026-04-27 10:40:42 | TAXI TO THE GATE | 25 | 41 |
| 2026-04-27 10:40:50 | AT THE GATE | 0 | 43 |
| 2026-04-27 10:40:56 | LND LIGHTS OFF | 0 | 43 |
| 2026-04-27 10:41:03 | TAXI LIGHTS ON | 0 | 43 |
| 2026-04-27 10:41:09 | STB LIGHTS OFF | 0 | 43 |
| 2026-04-27 10:41:18 | FLAP 0% | 0 | 43 |
| 2026-04-27 10:41:58 | TAXI LIGHTS OFF | 0 | 43 |
| 2026-04-27 10:42:05 | STOPPING ENGINE 1 | 0 | 42 |
| 2026-04-27 10:42:07 | BCN LIGHTS OFF | 0 | 42 |
| 2026-04-27 10:42:11 | LANDED NOT IN THE PLANNED AIRPORT [SIFC] - [lat: -7,84469693678111] - [long: -34,8925485576639] | 0 | 42 |
| 2026-04-27 10:42:11 | FLIGHT FINISHED | 0 | 42 |
| DATA | IAS | GS | ALTITUDE | COMBUSTÍVEL USADO | OAT | FASE DO VOO |
|---|---|---|---|---|---|---|
| 2026-04-27 09:19:31 | 3 | 0 | 911 | 0 | 26 | BOARDING |
| 2026-04-27 09:20:31 | 0 | 2 | 912 | 0 | 26 | TAXI TO THE RWY |
| 2026-04-27 09:21:31 | 68 | 69 | 911 | 0 | 26 | TAXI TO THE RWY |
| 2026-04-27 09:22:31 | 119 | 126 | 1705 | 1 | 26 | TAXI TO THE RWY |
| 2026-04-27 09:23:31 | 140 | 149 | 2227 | 2 | 23 | CLIMBING |
| 2026-04-27 09:24:31 | 154 | 159 | 2762 | 3 | 21 | CLIMBING |
| 2026-04-27 09:25:31 | 152 | 160 | 3279 | 4 | 20 | CLIMBING |
| 2026-04-27 09:26:32 | 142 | 147 | 3732 | 4 | 20 | CLIMBING |
| 2026-04-27 09:27:32 | 133 | 139 | 4207 | 5 | 19 | CLIMBING |
| 2026-04-27 09:28:32 | 139 | 147 | 4706 | 6 | 18 | CLIMBING |
| 2026-04-27 09:29:32 | 137 | 146 | 5164 | 7 | 17 | CRUISE |
| 2026-04-27 09:30:32 | 170 | 179 | 4035 | 7 | 19 | CRUISE |
| 2026-04-27 09:31:32 | 154 | 161 | 3599 | 8 | 20 | DESCEND |
| 2026-04-27 09:32:33 | 154 | 160 | 3569 | 9 | 20 | DESCEND |
| 2026-04-27 09:33:33 | 158 | 161 | 3580 | 10 | 20 | CRUISE |
| 2026-04-27 09:34:33 | 155 | 159 | 3579 | 11 | 20 | CRUISE |
| 2026-04-27 09:35:33 | 152 | 156 | 3572 | 11 | 20 | CRUISE |
| 2026-04-27 09:36:34 | 148 | 154 | 3563 | 12 | 20 | LANDING |
| 2026-04-27 09:37:34 | 151 | 157 | 3558 | 13 | 20 | LANDING |
| 2026-04-27 09:38:34 | 154 | 159 | 3552 | 14 | 20 | LANDING |
| 2026-04-27 09:39:34 | 154 | 158 | 3569 | 15 | 21 | LANDING |
| 2026-04-27 09:40:34 | 158 | 159 | 3573 | 15 | 21 | LANDING |
| 2026-04-27 09:41:34 | 156 | 161 | 3563 | 16 | 20 | LANDING |
| 2026-04-27 09:42:34 | 153 | 157 | 3552 | 17 | 19 | LANDING |
| 2026-04-27 09:43:34 | 154 | 157 | 3552 | 18 | 19 | LANDING |
| 2026-04-27 09:44:34 | 150 | 156 | 3538 | 19 | 19 | LANDING |
| 2026-04-27 09:45:34 | 146 | 157 | 3548 | 19 | 19 | LANDING |
| 2026-04-27 09:46:34 | 159 | 164 | 3548 | 20 | 19 | CRUISE |
| 2026-04-27 09:47:35 | 161 | 166 | 3547 | 21 | 19 | LANDING |
| 2026-04-27 09:48:35 | 150 | 154 | 3538 | 22 | 19 | LANDING |
| 2026-04-27 09:49:35 | 154 | 159 | 3540 | 23 | 19 | LANDING |
| 2026-04-27 09:50:35 | 156 | 159 | 3536 | 23 | 19 | CRUISE |
| 2026-04-27 09:51:35 | 156 | 162 | 3533 | 24 | 19 | CRUISE |
| 2026-04-27 09:52:35 | 152 | 156 | 3507 | 25 | 19 | CRUISE |
| 2026-04-27 09:53:35 | 151 | 156 | 3510 | 26 | 19 | LANDING |
| 2026-04-27 09:54:35 | 148 | 155 | 3510 | 27 | 19 | LANDING |
| 2026-04-27 09:55:35 | 151 | 157 | 3504 | 27 | 19 | LANDING |
| 2026-04-27 09:56:35 | 150 | 154 | 3502 | 28 | 19 | LANDING |
| 2026-04-27 09:57:35 | 156 | 159 | 3516 | 29 | 19 | LANDING |
| 2026-04-27 09:58:36 | 155 | 159 | 3518 | 30 | 19 | LANDING |
| 2026-04-27 09:59:36 | 156 | 158 | 3498 | 31 | 19 | LANDING |
| 2026-04-27 10:00:36 | 151 | 156 | 3497 | 31 | 19 | LANDING |
| 2026-04-27 10:01:36 | 150 | 158 | 3494 | 32 | 19 | LANDING |
| 2026-04-27 10:02:36 | 151 | 155 | 3496 | 33 | 19 | LANDING |
| 2026-04-27 10:03:36 | 157 | 158 | 3496 | 34 | 19 | LANDING |
| 2026-04-27 10:04:36 | 155 | 155 | 3506 | 35 | 19 | LANDING |
| 2026-04-27 10:05:36 | 153 | 156 | 3498 | 35 | 19 | LANDING |
| 2026-04-27 10:06:36 | 153 | 156 | 3500 | 36 | 19 | LANDING |
| 2026-04-27 10:07:36 | 155 | 157 | 3497 | 37 | 19 | LANDING |
| 2026-04-27 10:08:36 | 153 | 154 | 3504 | 38 | 19 | CRUISE |
| 2026-04-27 10:09:36 | 153 | 153 | 3502 | 39 | 19 | CRUISE |
| 2026-04-27 10:10:36 | 155 | 156 | 3495 | 39 | 19 | CRUISE |
| 2026-04-27 10:11:37 | 155 | 156 | 3499 | 40 | 19 | CRUISE |
| 2026-04-27 10:12:37 | 153 | 157 | 3492 | 41 | 19 | CRUISE |
| 2026-04-27 10:13:37 | 152 | 153 | 3494 | 42 | 19 | CRUISE |
| 2026-04-27 10:14:37 | 151 | 154 | 3495 | 43 | 19 | CRUISE |
| 2026-04-27 10:15:37 | 151 | 153 | 3493 | 43 | 19 | CRUISE |
| 2026-04-27 10:16:37 | 152 | 155 | 3495 | 44 | 19 | CRUISE |
| 2026-04-27 10:17:37 | 151 | 154 | 3494 | 45 | 19 | CRUISE |
| 2026-04-27 10:18:37 | 149 | 151 | 3495 | 46 | 19 | CRUISE |
| 2026-04-27 10:19:37 | 150 | 157 | 3488 | 47 | 19 | CRUISE |
| 2026-04-27 10:20:37 | 149 | 158 | 3490 | 47 | 19 | CRUISE |
| 2026-04-27 10:21:37 | 149 | 157 | 3488 | 48 | 19 | CRUISE |
| 2026-04-27 10:22:38 | 153 | 158 | 3493 | 49 | 19 | CRUISE |
| 2026-04-27 10:23:38 | 151 | 156 | 3487 | 50 | 19 | CRUISE |
| 2026-04-27 10:24:38 | 151 | 156 | 3491 | 51 | 19 | CRUISE |
| 2026-04-27 10:25:38 | 155 | 163 | 3500 | 52 | 19 | CRUISE |
| 2026-04-27 10:26:38 | 156 | 165 | 3499 | 52 | 19 | CRUISE |
| 2026-04-27 10:27:38 | 150 | 159 | 3486 | 53 | 19 | CRUISE |
| 2026-04-27 10:28:38 | 151 | 159 | 3491 | 54 | 19 | CRUISE |
| 2026-04-27 10:29:38 | 151 | 160 | 3491 | 55 | 19 | CRUISE |
| 2026-04-27 10:30:38 | 151 | 155 | 3485 | 56 | 19 | CRUISE |
| 2026-04-27 10:31:38 | 171 | 172 | 2781 | 56 | 20 | DESCEND |
| 2026-04-27 10:32:38 | 175 | 175 | 1997 | 57 | 22 | DESCEND |
| 2026-04-27 10:33:38 | 156 | 151 | 1498 | 58 | 23 | DESCEND |
| 2026-04-27 10:34:38 | 155 | 161 | 1449 | 59 | 23 | DESCEND |
| 2026-04-27 10:35:39 | 157 | 169 | 1457 | 60 | 23 | DESCEND |
| 2026-04-27 10:36:39 | 158 | 161 | 1447 | 61 | 23 | DESCEND |
| 2026-04-27 10:37:39 | 153 | 150 | 1432 | 62 | 23 | DESCEND |
| 2026-04-27 10:38:39 | 168 | 162 | 1380 | 63 | 23 | DESCEND |
| 2026-04-27 10:39:39 | 167 | 160 | 949 | 63 | 24 | DESCEND |
| 2026-04-27 10:40:39 | 60 | 47 | 41 | 64 | 27 | DESCEND |
| 2026-04-27 10:41:39 | 9 | 6 | 43 | 64 | 27 | LANDED - VS: -129 ft/min |
| 2026-04-27 11:21:39 | 0 | 0 | 52 | 0 | 27 | AT THE GATE |